Terminal Aerodrome Forecast
Issued by NWS Portland, OR

Home | Current Version | Previous Version | Text Only | Print | Product List | Glossary On
Versions: 1 2 3 4 5 6 7 8 9 10 11 12 13 14 15 16 17 18 19 20 21 22 23 24 25 26 27 28 29 30 31
000
FTUS46 KPQR 301130
TAFTTD
TAF
KTTD 301130Z 3012/3112 VRB02KT P6SM BKN060
     FM301400 00000KT P6SM BKN015 BKN070
     FM301700 21004KT P6SM VCSH SCT022 OVC045
     FM302200 25004KT P6SM -SHRA BKN035 OVC050
     FM310400 25006KT P6SM SCT035 BKN050=

USA.gov is the U.S. government's official web portal to all federal, state and local government web resources and services.